Time;durP1;ratioP1;P1;durP2;ratioP2;P2;SDS_P1;SDS_P2;PMS_P1;PMS_P2;Temp;Humidity;BMP_temperature;BMP_pressure;BME280_temperature;BME280_humidity;BME280_pressure;Samples;Min_cycle;Max_cycle;Signal;HPM_P1;HPM_P2
2022/06/23 00:00:22;;;;;;;1.10;1.00;;;25.70;59.60;;;;;;5016408;28;20491;-83
2022/06/23 00:02:49;;;;;;;1.10;0.93;;;25.80;59.70;;;;;;5016370;28;20482;-84
2022/06/23 00:05:21;;;;;;;1.10;1.00;;;25.80;59.70;;;;;;5015925;28;20534;-84
2022/06/23 00:07:52;;;;;;;1.30;1.10;;;25.80;59.70;;;;;;5016426;28;20530;-90
2022/06/23 00:10:21;;;;;;;1.10;0.80;;;25.80;59.60;;;;;;5016363;28;20446;-90
2022/06/23 00:12:49;;;;;;;1.10;1.00;;;25.70;59.50;;;;;;5016253;28;20440;-85
2022/06/23 00:15:25;;;;;;;1.10;1.00;;;25.80;59.60;;;;;;5016120;28;20526;-90
2022/06/23 00:17:59;;;;;;;1.00;0.90;;;25.80;59.60;;;;;;5016113;28;20443;-85
2022/06/23 00:20:30;;;;;;;1.70;1.20;;;25.80;59.60;;;;;;5016185;28;20522;-84
2022/06/23 00:23:05;;;;;;;1.00;0.80;;;25.80;59.50;;;;;;5016051;28;20574;-89
2022/06/23 00:25:39;;;;;;;0.90;0.80;;;25.70;59.50;;;;;;5016029;28;20533;-85
2022/06/23 00:28:06;;;;;;;1.00;0.90;;;25.80;59.50;;;;;;5016148;28;20494;-86
2022/06/23 00:30:39;;;;;;;1.40;1.20;;;25.80;60.20;;;;;;5016030;28;20545;-90
2022/06/23 00:33:08;;;;;;;1.97;1.00;;;25.80;59.50;;;;;;5015594;28;20435;-85
2022/06/23 00:35:36;;;;;;;1.00;0.90;;;25.70;59.50;;;;;;5015868;28;20574;-90
2022/06/23 00:38:03;;;;;;;1.00;0.90;;;25.80;59.50;;;;;;5015855;28;20436;-84
2022/06/23 00:40:30;;;;;;;1.40;1.30;;;25.80;59.50;;;;;;5015638;28;20475;-84
2022/06/23 00:43:00;;;;;;;1.20;0.90;;;25.80;59.60;;;;;;5015730;28;20542;-85
2022/06/23 00:45:33;;;;;;;1.10;1.00;;;25.80;59.50;;;;;;5015583;28;20558;-85
2022/06/23 00:48:06;;;;;;;1.10;1.00;;;25.80;59.50;;;;;;5015765;28;20448;-89
2022/06/23 00:50:38;;;;;;;1.00;0.80;;;25.80;59.50;;;;;;5015603;28;20792;-85
2022/06/23 00:53:16;;;;;;;1.30;1.20;;;25.80;59.30;;;;;;5015713;28;20476;-90
2022/06/23 00:55:50;;;;;;;1.17;1.07;;;25.80;59.30;;;;;;5015391;28;20845;-90
2022/06/23 00:58:25;;;;;;;1.00;0.87;;;25.80;59.90;;;;;;5015620;28;20542;-90
2022/06/23 01:00:54;;;;;;;1.20;1.10;;;25.80;59.20;;;;;;5015450;28;20445;-90
2022/06/23 01:03:26;;;;;;;1.60;0.90;;;25.80;59.40;;;;;;5015254;28;20493;-84
2022/06/23 01:06:01;;;;;;;1.00;0.90;;;25.70;59.30;;;;;;5015190;28;20435;-84
2022/06/23 01:08:34;;;;;;;1.00;0.90;;;25.80;59.20;;;;;;5015271;28;20445;-88
2022/06/23 01:11:07;;;;;;;1.10;0.90;;;25.80;59.30;;;;;;5015030;28;20946;-83
2022/06/23 01:13:42;;;;;;;1.00;0.90;;;25.70;59.30;;;;;;5015059;28;21017;-89
2022/06/23 01:16:18;;;;;;;1.50;1.07;;;25.80;59.30;;;;;;5015045;28;20489;-89
2022/06/23 01:18:53;;;;;;;1.50;0.90;;;25.80;59.30;;;;;;5015121;28;20443;-84
2022/06/23 01:21:24;;;;;;;1.20;0.97;;;25.80;59.30;;;;;;5014978;28;20533;-83
2022/06/23 01:24:09;;;;;;;1.10;1.00;;;25.80;59.30;;;;;;5014768;28;20590;-83
2022/06/23 01:26:51;;;;;;;1.40;1.00;;;25.80;59.30;;;;;;5014706;28;20507;-84
2022/06/23 01:29:25;;;;;;;1.83;0.90;;;25.80;59.30;;;;;;5014848;28;20853;-84
2022/06/23 01:31:55;;;;;;;1.10;0.77;;;25.80;59.30;;;;;;5014799;28;20440;-88
2022/06/23 01:34:30;;;;;;;1.10;1.00;;;25.80;59.20;;;;;;5014542;28;21011;-83
2022/06/23 01:37:03;;;;;;;1.30;0.93;;;25.80;59.20;;;;;;5014648;28;20909;-83
2022/06/23 01:39:37;;;;;;;1.03;0.90;;;25.80;59.30;;;;;;5014549;28;20535;-83
2022/06/23 01:42:18;;;;;;;1.10;1.00;;;25.70;59.30;;;;;;5014462;28;20534;-83
2022/06/23 01:44:52;;;;;;;1.10;0.90;;;25.70;59.30;;;;;;5014327;28;20470;-84
2022/06/23 01:47:27;;;;;;;1.00;0.90;;;25.70;59.30;;;;;;5014611;28;20445;-83
2022/06/23 01:50:03;;;;;;;1.20;1.00;;;25.80;59.30;;;;;;5014669;28;20518;-84
2022/06/23 01:52:30;;;;;;;1.10;1.00;;;25.80;59.30;;;;;;5017181;28;20471;-85
2022/06/23 01:55:03;;;;;;;1.03;0.90;;;25.70;59.20;;;;;;5018069;28;20479;-83
2022/06/23 01:57:35;;;;;;;1.20;1.10;;;25.70;59.30;;;;;;5019544;28;20487;-83
2022/06/23 02:00:13;;;;;;;1.10;1.00;;;25.70;59.30;;;;;;5015104;28;20799;-83
2022/06/23 02:02:58;;;;;;;1.50;1.00;;;25.70;59.20;;;;;;5014496;28;20531;-88
2022/06/23 02:05:36;;;;;;;1.10;1.00;;;25.70;59.10;;;;;;5013213;28;20836;-84
2022/06/23 02:08:10;;;;;;;1.10;1.00;;;25.70;59.20;;;;;;5014208;28;20443;-83
2022/06/23 02:10:43;;;;;;;1.00;0.90;;;25.70;59.20;;;;;;5014104;28;20439;-85
2022/06/23 02:13:20;;;;;;;0.90;0.80;;;25.70;59.30;;;;;;5014192;28;20480;-84
2022/06/23 02:15:57;;;;;;;1.50;1.10;;;25.70;59.30;;;;;;5013726;28;20609;-85
2022/06/23 02:18:29;;;;;;;1.00;0.80;;;25.70;59.40;;;;;;5014047;28;20453;-83
2022/06/23 02:21:12;;;;;;;1.47;1.10;;;25.70;59.30;;;;;;5013557;28;20450;-83
2022/06/23 02:23:42;;;;;;;2.03;0.90;;;25.70;59.20;;;;;;5014211;28;20467;-85
2022/06/23 02:26:17;;;;;;;1.00;0.90;;;25.70;59.40;;;;;;5013697;28;20534;-83
2022/06/23 02:28:51;;;;;;;1.10;1.00;;;25.70;59.30;;;;;;5013871;28;20918;-84
2022/06/23 02:31:25;;;;;;;1.00;0.80;;;25.70;59.30;;;;;;5014002;28;20448;-85
2022/06/23 02:33:57;;;;;;;1.20;1.10;;;25.70;59.30;;;;;;5013724;28;20474;-91
2022/06/23 02:36:55;;;;;;;1.20;1.00;;;25.70;59.30;;;;;;5013605;28;20573;-90
2022/06/23 02:39:26;;;;;;;1.07;0.90;;;25.70;59.30;;;;;;5014051;28;20497;-84
2022/06/23 02:41:58;;;;;;;1.10;1.00;;;25.70;59.40;;;;;;5013505;28;20486;-85
2022/06/23 02:44:52;;;;;;;1.03;0.90;;;25.70;59.40;;;;;;5013490;28;20499;-84
2022/06/23 02:47:31;;;;;;;1.30;1.20;;;25.70;59.40;;;;;;5013400;28;20530;-84
2022/06/23 02:50:29;;;;;;;1.60;1.07;;;25.70;59.40;;;;;;5013690;28;20436;-85
2022/06/23 02:53:21;;;;;;;1.10;0.93;;;25.70;59.40;;;;;;5010915;28;20447;-89
2022/06/23 02:56:18;;;;;;;1.20;1.07;;;25.70;59.40;;;;;;5013435;28;20865;-84
2022/06/23 02:58:50;;;;;;;1.67;1.00;;;25.70;59.40;;;;;;5013499;28;21014;-84
2022/06/23 03:01:26;;;;;;;1.20;1.10;;;25.70;59.50;;;;;;5013428;28;20442;-88
2022/06/23 03:04:04;;;;;;;1.10;1.00;;;25.70;59.50;;;;;;5013344;28;20479;-85
2022/06/23 03:06:39;;;;;;;1.00;0.90;;;25.70;59.40;;;;;;5013126;28;21027;-85
2022/06/23 03:09:11;;;;;;;1.10;1.00;;;25.70;59.50;;;;;;5013477;28;20431;-84
2022/06/23 03:11:52;;;;;;;1.10;1.00;;;25.70;59.70;;;;;;5013344;28;20482;-84
2022/06/23 03:14:25;;;;;;;1.20;0.83;;;25.70;59.70;;;;;;5013058;28;20466;-84
2022/06/23 03:16:56;;;;;;;1.10;0.90;;;25.70;59.70;;;;;;5013082;28;20522;-85
2022/06/23 03:19:37;;;;;;;1.20;1.10;;;25.70;59.80;;;;;;5013454;28;21021;-85
2022/06/23 03:22:10;;;;;;;1.13;1.03;;;25.70;60.50;;;;;;5013136;28;20530;-84
2022/06/23 03:24:45;;;;;;;1.20;1.10;;;25.70;59.70;;;;;;5013365;28;20657;-90
2022/06/23 03:27:21;;;;;;;1.20;1.10;;;25.70;59.70;;;;;;5013268;28;20475;-86
2022/06/23 03:29:52;;;;;;;1.07;0.80;;;25.70;59.70;;;;;;5013280;28;20471;-85
2022/06/23 03:32:23;;;;;;;1.10;0.90;;;25.70;59.80;;;;;;5013151;28;20969;-85
2022/06/23 03:34:58;;;;;;;1.10;0.90;;;25.70;59.80;;;;;;5016327;28;20524;-85
2022/06/23 03:37:38;;;;;;;1.00;0.90;;;25.70;59.80;;;;;;5016700;28;20490;-85
2022/06/23 03:43:10;;;;;;;1.20;1.10;;;25.70;59.90;;;;;;5016798;28;20427;-85
2022/06/23 03:45:46;;;;;;;1.10;0.90;;;25.70;59.90;;;;;;5016595;28;20459;-85
2022/06/23 03:48:19;;;;;;;1.30;1.10;;;25.70;59.90;;;;;;4999165;28;20443;-84
2022/06/23 03:50:51;;;;;;;1.20;1.10;;;25.70;60.00;;;;;;5016539;28;20475;-84
2022/06/23 03:53:27;;;;;;;1.00;0.90;;;25.70;59.90;;;;;;5016515;28;20530;-84
2022/06/23 03:55:58;;;;;;;1.10;1.00;;;25.70;60.00;;;;;;5016655;28;20445;-85
2022/06/23 03:58:33;;;;;;;1.03;0.93;;;25.70;60.00;;;;;;5016430;28;20447;-85
2022/06/23 04:01:05;;;;;;;1.30;1.20;;;25.70;60.00;;;;;;5016421;28;20969;-85
2022/06/23 04:03:37;;;;;;;1.10;1.00;;;25.70;60.00;;;;;;5016359;28;20534;-85
2022/06/23 04:06:24;;;;;;;1.00;0.90;;;25.70;60.00;;;;;;5016191;28;20539;-85
2022/06/23 04:09:16;;;;;;;1.20;1.00;;;25.70;60.00;;;;;;5017082;28;20523;-85
2022/06/23 04:11:53;;;;;;;1.30;1.20;;;25.70;60.10;;;;;;5016210;28;20930;-84
2022/06/23 04:14:28;;;;;;;1.03;0.93;;;25.70;60.00;;;;;;5016026;28;20471;-84
2022/06/23 04:17:06;;;;;;;1.07;0.97;;;25.70;60.90;;;;;;5016248;28;20876;-86
2022/06/23 04:19:35;;;;;;;1.00;0.80;;;25.70;60.10;;;;;;5016151;28;20530;-85
2022/06/23 04:22:10;;;;;;;1.10;0.97;;;25.60;60.00;;;;;;5015940;28;20443;-84
2022/06/23 04:24:42;;;;;;;1.40;1.27;;;25.70;60.10;;;;;;5016255;28;20530;-85
2022/06/23 04:27:16;;;;;;;1.20;1.10;;;25.70;60.90;;;;;;5015774;28;20487;-85
2022/06/23 04:29:43;;;;;;;1.57;1.23;;;25.70;60.00;;;;;;5016083;28;20530;-84
2022/06/23 04:32:14;;;;;;;1.77;1.67;;;25.70;60.10;;;;;;5015636;28;20538;-85
2022/06/23 04:34:49;;;;;;;2.07;1.60;;;25.70;60.10;;;;;;5015790;28;20531;-90
2022/06/23 04:37:29;;;;;;;1.20;1.10;;;25.60;60.00;;;;;;5015836;28;20486;-88
2022/06/23 04:40:06;;;;;;;1.97;1.87;;;25.70;60.10;;;;;;5022174;28;21010;-85
2022/06/23 04:42:34;;;;;;;1.80;1.70;;;25.70;60.10;;;;;;5015599;28;21006;-85
2022/06/23 04:45:33;;;;;;;1.50;1.40;;;25.70;60.20;;;;;;5015218;28;20587;-88
2022/06/23 04:48:04;;;;;;;1.60;1.50;;;25.70;60.10;;;;;;5015826;28;20466;-84
2022/06/23 04:50:43;;;;;;;1.73;1.63;;;25.60;60.10;;;;;;5015516;28;20478;-88
2022/06/23 04:53:21;;;;;;;1.50;1.40;;;25.70;60.10;;;;;;5015493;28;20538;-89
2022/06/23 04:56:01;;;;;;;1.63;1.53;;;25.70;60.20;;;;;;5015230;28;20539;-84
2022/06/23 04:58:29;;;;;;;1.97;1.87;;;25.60;60.10;;;;;;5015127;28;20533;-84
2022/06/23 05:00:56;;;;;;;2.23;2.03;;;25.60;60.20;;;;;;5015323;28;20470;-84
2022/06/23 05:03:31;;;;;;;1.50;1.40;;;25.70;60.20;;;;;;5015264;28;20445;-84
2022/06/23 05:06:05;;;;;;;2.03;1.93;;;25.70;60.20;;;;;;5015189;28;20489;-84
2022/06/23 05:08:37;;;;;;;1.70;1.60;;;25.60;60.10;;;;;;5015145;28;20534;-84
2022/06/23 05:11:09;;;;;;;2.07;1.97;;;25.60;60.10;;;;;;5015174;28;20530;-84
2022/06/23 05:13:41;;;;;;;2.23;2.03;;;25.70;60.30;;;;;;5014631;28;20448;-84
2022/06/23 05:16:10;;;;;;;1.90;1.80;;;25.70;60.20;;;;;;5014781;28;20527;-84
2022/06/23 05:18:44;;;;;;;1.70;1.60;;;25.60;60.50;;;;;;5014765;28;20497;-84
2022/06/23 05:21:17;;;;;;;1.77;1.67;;;25.60;60.20;;;;;;5014943;28;20535;-84
2022/06/23 05:23:51;;;;;;;1.60;1.50;;;25.60;60.20;;;;;;5014822;28;20490;-84
2022/06/23 05:26:24;;;;;;;2.00;1.90;;;25.70;60.30;;;;;;5014696;28;20565;-84
2022/06/23 05:28:56;;;;;;;2.00;1.90;;;25.70;60.30;;;;;;5014807;28;20443;-85
2022/06/23 05:31:29;;;;;;;1.50;1.40;;;25.70;60.40;;;;;;5017507;28;20447;-84
2022/06/23 05:34:22;;;;;;;2.10;2.00;;;25.70;60.30;;;;;;5016913;28;20530;-83
2022/06/23 05:36:56;;;;;;;1.83;1.73;;;25.70;60.30;;;;;;5014793;28;20479;-84
2022/06/23 05:39:32;;;;;;;1.80;1.70;;;25.70;60.40;;;;;;5014631;28;20482;-89
2022/06/23 05:42:07;;;;;;;2.00;1.90;;;25.70;60.30;;;;;;5014517;28;20447;-83
2022/06/23 05:44:48;;;;;;;1.90;1.80;;;25.70;60.40;;;;;;5014397;28;20879;-84
2022/06/23 05:47:17;;;;;;;1.90;1.77;;;25.70;60.40;;;;;;5014266;28;20853;-85
2022/06/23 05:49:49;;;;;;;1.70;1.60;;;25.70;60.40;;;;;;5014400;28;20451;-84
2022/06/23 05:52:20;;;;;;;1.90;1.70;;;25.70;60.40;;;;;;5014433;28;20448;-87
2022/06/23 05:54:54;;;;;;;1.60;1.50;;;25.60;60.30;;;;;;5014049;28;20441;-89
2022/06/23 05:57:25;;;;;;;1.73;1.63;;;25.60;60.40;;;;;;5013448;28;20561;-88
2022/06/23 06:00:00;;;;;;;1.63;1.53;;;25.70;60.40;;;;;;5014372;28;20471;-88
2022/06/23 06:02:33;;;;;;;1.63;1.50;;;25.70;60.40;;;;;;5014275;28;20497;-85
2022/06/23 06:05:02;;;;;;;1.80;1.70;;;25.70;60.40;;;;;;5014340;28;20515;-84
2022/06/23 06:07:41;;;;;;;1.70;1.60;;;25.60;60.40;;;;;;5014088;28;20931;-84
2022/06/23 06:10:16;;;;;;;2.33;1.80;;;25.70;60.50;;;;;;5014089;28;21024;-84
2022/06/23 06:12:44;;;;;;;2.10;2.00;;;25.70;60.50;;;;;;5014102;28;20538;-85
2022/06/23 06:15:18;;;;;;;2.03;1.93;;;25.70;60.50;;;;;;5013795;28;20491;-83
2022/06/23 06:17:45;;;;;;;2.10;1.90;;;25.60;60.50;;;;;;5013811;28;20990;-85
2022/06/23 06:20:14;;;;;;;1.70;1.60;;;25.70;60.60;;;;;;5013866;28;20432;-84
2022/06/23 06:22:48;;;;;;;1.70;1.60;;;25.70;60.60;;;;;;5014014;28;20436;-84
2022/06/23 06:25:25;;;;;;;1.70;1.50;;;25.70;60.60;;;;;;5013870;28;20445;-85
2022/06/23 06:27:55;;;;;;;1.70;1.60;;;25.70;60.60;;;;;;5013816;28;20514;-83
2022/06/23 06:30:27;;;;;;;2.10;2.00;;;25.70;60.70;;;;;;5013659;28;20442;-84
2022/06/23 06:32:56;;;;;;;1.50;1.40;;;25.70;60.70;;;;;;5013806;28;20522;-88
2022/06/23 06:35:31;;;;;;;1.83;1.73;;;25.70;60.70;;;;;;5013899;28;20478;-84
2022/06/23 06:38:03;;;;;;;2.10;1.90;;;25.70;60.70;;;;;;5014149;28;20486;-84
2022/06/23 06:40:32;;;;;;;1.80;1.70;;;25.70;60.80;;;;;;5013984;28;20475;-85
2022/06/23 06:43:03;;;;;;;1.87;1.77;;;25.70;61.60;;;;;;5013813;28;20440;-84
2022/06/23 06:45:34;;;;;;;1.90;1.67;;;25.70;60.90;;;;;;5013653;28;20970;-84
2022/06/23 06:48:02;;;;;;;1.30;1.20;;;25.70;60.80;;;;;;5013602;28;20538;-83
2022/06/23 06:50:36;;;;;;;1.67;1.57;;;25.70;60.90;;;;;;5013375;28;20583;-84
2022/06/23 06:53:07;;;;;;;1.50;1.40;;;25.70;60.80;;;;;;5013498;28;20534;-84
2022/06/23 06:55:42;;;;;;;1.70;1.60;;;25.70;60.90;;;;;;5013340;28;20467;-84
2022/06/23 06:58:14;;;;;;;1.60;1.50;;;25.70;60.90;;;;;;5013324;28;20846;-84
2022/06/23 07:00:45;;;;;;;1.50;1.40;;;25.70;61.00;;;;;;5013371;28;20530;-84
2022/06/23 07:03:16;;;;;;;2.00;1.90;;;25.70;61.00;;;;;;5013278;28;20519;-84
2022/06/23 07:05:48;;;;;;;1.80;1.70;;;25.70;61.00;;;;;;5013259;28;20444;-84
2022/06/23 07:08:20;;;;;;;1.80;1.70;;;25.70;61.00;;;;;;5015981;28;20446;-84
2022/06/23 07:10:52;;;;;;;1.57;1.47;;;25.70;61.00;;;;;;5017378;28;20470;-84
2022/06/23 07:13:26;;;;;;;1.77;1.53;;;25.70;61.10;;;;;;5017303;28;20483;-88
2022/06/23 07:15:56;;;;;;;1.73;1.63;;;25.70;61.10;;;;;;5017228;28;20530;-88
2022/06/23 07:18:30;;;;;;;1.50;1.40;;;25.70;61.20;;;;;;5017294;28;20494;-84
2022/06/23 07:21:03;;;;;;;1.70;1.60;;;25.70;61.10;;;;;;5017135;28;20519;-84
2022/06/23 07:23:35;;;;;;;1.80;1.70;;;25.70;61.20;;;;;;5016920;28;20443;-84
2022/06/23 07:26:20;;;;;;;1.70;1.60;;;25.70;61.20;;;;;;5016826;28;20534;-84
2022/06/23 07:28:54;;;;;;;1.73;1.63;;;25.70;61.10;;;;;;5017009;28;20447;-84
2022/06/23 07:31:28;;;;;;;1.70;1.60;;;25.60;61.20;;;;;;5017062;28;20439;-84
2022/06/23 07:34:00;;;;;;;1.83;1.73;;;25.70;61.20;;;;;;5016751;28;20471;-84
2022/06/23 07:36:32;;;;;;;1.63;1.53;;;25.70;61.20;;;;;;5016882;28;20435;-84
2022/06/23 07:39:05;;;;;;;1.63;1.53;;;25.70;61.20;;;;;;5016695;28;20578;-84
2022/06/23 07:41:39;;;;;;;1.93;1.83;;;25.70;61.10;;;;;;5016754;28;20449;-84
2022/06/23 07:44:12;;;;;;;1.80;1.57;;;25.70;62.10;;;;;;5016531;28;20550;-84
2022/06/23 07:46:39;;;;;;;1.87;1.77;;;25.70;61.30;;;;;;5016893;28;20448;-84
2022/06/23 07:49:07;;;;;;;1.90;1.80;;;25.70;61.40;;;;;;5016533;28;20439;-83
2022/06/23 07:51:35;;;;;;;1.70;1.60;;;25.70;61.40;;;;;;5016480;28;20530;-83
2022/06/23 07:54:02;;;;;;;1.33;1.23;;;25.70;61.40;;;;;;5016207;28;20444;-84
2022/06/23 07:56:31;;;;;;;1.70;1.60;;;25.70;61.40;;;;;;5016369;28;20798;-83
2022/06/23 07:59:02;;;;;;;1.60;1.50;;;25.70;61.40;;;;;;5016294;28;20578;-84
2022/06/23 08:01:31;;;;;;;2.10;1.80;;;25.70;61.40;;;;;;5016350;28;20482;-85
2022/06/23 08:04:04;;;;;;;1.33;1.23;;;25.70;61.30;;;;;;5016320;28;20476;-84
2022/06/23 08:06:32;;;;;;;1.70;1.60;;;25.70;61.20;;;;;;5016341;28;20454;-85
2022/06/23 08:09:03;;;;;;;1.50;1.40;;;25.70;61.20;;;;;;5016154;28;20471;-88
2022/06/23 08:14:33;;;;;;;1.67;1.57;;;25.70;61.20;;;;;;4974768;28;20991;-84
2022/06/23 08:17:01;;;;;;;1.70;1.60;;;25.70;61.20;;;;;;5007356;28;20483;-84
2022/06/23 08:19:34;;;;;;;1.63;1.53;;;25.70;61.20;;;;;;5015213;28;21000;-84
2022/06/23 08:22:06;;;;;;;1.63;1.53;;;25.70;61.10;;;;;;5015871;28;20550;-84
2022/06/23 08:24:33;;;;;;;1.47;1.37;;;25.70;61.10;;;;;;5015744;28;20498;-84
2022/06/23 08:27:03;;;;;;;2.00;1.77;;;25.70;61.10;;;;;;5015764;28;20635;-84
2022/06/23 08:29:35;;;;;;;1.63;1.50;;;25.70;61.10;;;;;;5015868;28;20543;-84
2022/06/23 08:32:02;;;;;;;1.50;1.40;;;25.70;61.00;;;;;;5015723;28;20546;-84
2022/06/23 08:34:31;;;;;;;2.00;1.90;;;25.70;61.00;;;;;;5015556;28;20534;-85
2022/06/23 08:37:03;;;;;;;1.67;1.57;;;25.70;61.10;;;;;;5015669;28;20781;-84
2022/06/23 08:39:35;;;;;;;1.70;1.60;;;25.70;61.00;;;;;;5015601;28;20487;-84
2022/06/23 08:42:13;;;;;;;1.47;1.37;;;25.80;61.10;;;;;;5015509;28;20547;-84
2022/06/23 08:44:48;;;;;;;1.50;1.40;;;25.70;61.10;;;;;;5015535;28;20495;-86
2022/06/23 08:47:21;;;;;;;2.07;1.97;;;25.80;61.20;;;;;;5015606;28;20446;-84
2022/06/23 08:49:54;;;;;;;1.60;1.50;;;25.80;61.10;;;;;;5015568;28;20482;-88
2022/06/23 08:52:28;;;;;;;1.60;1.50;;;25.80;62.00;;;;;;5015410;28;20471;-83
2022/06/23 08:55:05;;;;;;;2.10;1.60;;;25.80;61.20;;;;;;5015330;28;20960;-84
2022/06/23 08:57:37;;;;;;;1.60;1.50;;;25.70;61.10;;;;;;5015224;28;20478;-86
2022/06/23 09:00:10;;;;;;;1.60;1.50;;;25.70;61.10;;;;;;5015332;28;20538;-84
2022/06/23 09:02:43;;;;;;;1.60;1.50;;;25.70;61.20;;;;;;5015088;28;20531;-84
2022/06/23 09:05:18;;;;;;;1.50;1.40;;;25.80;61.20;;;;;;5015531;28;20991;-84
2022/06/23 09:07:55;;;;;;;1.17;1.07;;;25.80;61.30;;;;;;5015210;28;20444;-84
2022/06/23 09:10:33;;;;;;;3.00;1.60;;;25.80;61.30;;;;;;5015154;28;20439;-84
2022/06/23 09:13:08;;;;;;;1.50;1.40;;;25.80;61.30;;;;;;5015046;28;20969;-83
2022/06/23 09:16:06;;;;;;;1.60;1.50;;;25.80;61.30;;;;;;5014796;28;20474;-84
2022/06/23 09:18:53;;;;;;;1.93;1.60;;;25.80;61.30;;;;;;5015081;28;20523;-83
2022/06/23 09:21:55;;;;;;;1.37;1.27;;;25.80;61.40;;;;;;5014847;28;20865;-84
2022/06/23 09:24:55;;;;;;;1.77;1.67;;;25.80;61.40;;;;;;5012294;28;20539;-84
2022/06/23 09:27:43;;;;;;;1.40;1.30;;;25.80;61.40;;;;;;5011209;28;20570;-84
2022/06/23 09:30:16;;;;;;;1.33;1.23;;;25.80;61.50;;;;;;5011093;28;20482;-90
2022/06/23 09:33:00;;;;;;;1.73;1.60;;;25.80;61.50;;;;;;5014298;28;20974;-84
2022/06/23 09:35:55;;;;;;;1.80;1.70;;;25.80;61.40;;;;;;5012902;28;20502;-84
2022/06/23 09:38:45;;;;;;;1.80;1.70;;;25.80;61.40;;;;;;5014413;28;20498;-84
2022/06/23 09:41:30;;;;;;;1.47;1.37;;;25.80;61.50;;;;;;5014521;28;20919;-84
2022/06/23 09:44:34;;;;;;;1.80;1.70;;;25.80;61.50;;;;;;5014486;28;20868;-84
2022/06/23 09:47:30;;;;;;;1.40;1.30;;;25.80;61.50;;;;;;5014497;28;20534;-84
2022/06/23 09:50:35;;;;;;;1.57;1.47;;;25.80;61.60;;;;;;5014380;28;20572;-84
2022/06/23 09:53:34;;;;;;;2.00;1.90;;;25.80;61.70;;;;;;4996225;28;20454;-87
2022/06/23 09:56:48;;;;;;;1.87;1.57;;;25.80;61.60;;;;;;5014447;28;20450;-89
2022/06/23 09:59:39;;;;;;;1.83;1.53;;;25.80;61.60;;;;;;4953928;29;20572;-84
2022/06/23 10:02:22;;;;;;;1.70;1.60;;;25.70;61.70;;;;;;4978253;28;20475;-84
2022/06/23 10:05:07;;;;;;;1.70;1.60;;;25.70;61.70;;;;;;5014137;28;20444;-84
2022/06/23 10:07:59;;;;;;;1.40;1.30;;;25.80;61.80;;;;;;5013984;28;20950;-84
2022/06/23 10:11:02;;;;;;;1.60;1.50;;;25.80;61.80;;;;;;5014069;28;20526;-83
2022/06/23 10:13:43;;;;;;;1.67;1.57;;;25.80;61.70;;;;;;4978727;28;20542;-83
2022/06/23 10:16:25;;;;;;;1.30;1.20;;;25.80;61.80;;;;;;5013864;28;20522;-84
2022/06/23 10:19:16;;;;;;;1.63;1.53;;;25.80;61.90;;;;;;5013818;28;20475;-84
2022/06/23 10:21:58;;;;;;;1.50;1.40;;;25.80;61.80;;;;;;5013736;28;20861;-84
2022/06/23 10:24:48;;;;;;;1.53;1.43;;;25.80;61.90;;;;;;5013705;28;20475;-84
2022/06/23 10:27:30;;;;;;;1.40;1.30;;;25.80;61.80;;;;;;5013694;28;20499;-84
2022/06/23 10:30:08;;;;;;;2.13;2.03;;;25.80;61.90;;;;;;5013710;28;20530;-84
2022/06/23 10:33:17;;;;;;;1.70;1.60;;;25.80;61.90;;;;;;5013658;28;20526;-84
2022/06/23 10:36:04;;;;;;;1.60;1.50;;;25.80;61.80;;;;;;4998272;28;20540;-84
2022/06/23 10:38:42;;;;;;;1.53;1.43;;;25.80;62.00;;;;;;5013580;28;20574;-84
2022/06/23 10:41:30;;;;;;;1.57;1.47;;;25.80;62.00;;;;;;5013577;28;20483;-84
2022/06/23 10:44:39;;;;;;;1.57;1.47;;;25.80;62.00;;;;;;5013156;28;20495;-84
2022/06/23 10:47:20;;;;;;;1.90;1.73;;;25.80;61.90;;;;;;4966677;28;20447;-84
2022/06/23 10:50:13;;;;;;;1.77;1.67;;;25.80;62.00;;;;;;5013692;28;20478;-83
2022/06/23 10:53:08;;;;;;;1.60;1.50;;;25.80;62.00;;;;;;5013385;28;20534;-84
2022/06/23 10:56:01;;;;;;;1.77;1.67;;;25.80;62.00;;;;;;5013203;28;20443;-84
2022/06/23 10:58:44;;;;;;;1.70;1.60;;;25.80;62.10;;;;;;5013129;28;20518;-84
2022/06/23 11:01:38;;;;;;;1.53;1.43;;;25.80;62.10;;;;;;5013481;28;20531;-84
2022/06/23 11:04:25;;;;;;;2.00;1.80;;;25.80;62.10;;;;;;5013192;28;20478;-84
2022/06/23 11:07:17;;;;;;;1.57;1.47;;;25.80;62.10;;;;;;5013212;28;20482;-84
2022/06/23 11:10:07;;;;;;;1.53;1.43;;;25.80;62.10;;;;;;5013308;28;20471;-84
2022/06/23 11:12:46;;;;;;;1.50;1.40;;;25.80;62.20;;;;;;5013136;28;20475;-84
2022/06/23 11:15:23;;;;;;;1.57;1.47;;;25.80;62.20;;;;;;5013149;28;20463;-84
2022/06/23 11:18:04;;;;;;;1.50;1.40;;;25.80;62.20;;;;;;5013212;28;20439;-85
2022/06/23 11:20:43;;;;;;;2.37;1.50;;;25.80;62.20;;;;;;5013155;28;20581;-84
2022/06/23 11:23:21;;;;;;;1.83;1.60;;;25.80;62.10;;;;;;5013099;28;20526;-86
2022/06/23 11:25:56;;;;;;;1.70;1.60;;;25.80;62.10;;;;;;5013244;28;20479;-83
2022/06/23 11:28:35;;;;;;;1.47;1.37;;;25.80;62.20;;;;;;4993743;28;20479;-84
2022/06/23 11:31:17;;;;;;;1.67;1.37;;;25.80;62.20;;;;;;4993550;28;20445;-84
2022/06/23 11:34:03;;;;;;;1.50;1.40;;;25.80;62.20;;;;;;4993244;28;20444;-84
2022/06/23 11:36:53;;;;;;;1.80;1.70;;;25.90;62.20;;;;;;4993427;28;20444;-84
2022/06/23 11:39:40;;;;;;;3.30;1.67;;;25.90;62.30;;;;;;4990244;28;20570;-84
2022/06/23 11:42:35;;;;;;;1.50;1.40;;;25.80;62.20;;;;;;4993389;28;20488;-84
2022/06/23 11:45:16;;;;;;;1.43;1.33;;;25.90;62.30;;;;;;4993313;28;20555;-83
2022/06/23 11:47:55;;;;;;;1.50;1.40;;;25.80;62.20;;;;;;4993695;28;20478;-89
2022/06/23 11:50:34;;;;;;;1.60;1.30;;;25.80;62.30;;;;;;4993379;28;20542;-84
2022/06/23 11:53:20;;;;;;;1.50;1.40;;;25.80;62.30;;;;;;4993528;28;20839;-84
2022/06/23 11:55:52;;;;;;;1.50;1.40;;;25.90;62.30;;;;;;4996178;28;20440;-88
2022/06/23 11:58:39;;;;;;;1.30;1.20;;;25.90;62.30;;;;;;4997007;28;20456;-88
2022/06/23 12:01:15;;;;;;;1.70;1.60;;;25.90;62.30;;;;;;4997013;28;20798;-89
2022/06/23 12:04:16;;;;;;;1.80;1.70;;;25.90;62.30;;;;;;4996657;28;20479;-84
2022/06/23 12:07:00;;;;;;;1.97;1.60;;;25.90;62.30;;;;;;4996830;28;20478;-84
2022/06/23 12:09:31;;;;;;;1.70;1.60;;;25.90;62.50;;;;;;4996785;28;20540;-88
2022/06/23 12:12:01;;;;;;;1.27;1.17;;;25.80;62.40;;;;;;4996757;28;20474;-84
2022/06/23 12:14:29;;;;;;;1.93;1.73;;;25.80;62.30;;;;;;4996411;28;20460;-84
2022/06/23 12:17:00;;;;;;;1.80;1.70;;;25.80;62.30;;;;;;4996667;28;20441;-84
2022/06/23 12:19:36;;;;;;;1.47;1.37;;;25.80;62.30;;;;;;4996515;28;21078;-84
2022/06/23 12:22:12;;;;;;;1.67;1.57;;;25.90;62.40;;;;;;4996499;28;20444;-89
2022/06/23 12:24:48;;;;;;;1.60;1.30;;;25.90;62.50;;;;;;4996517;28;20535;-85
2022/06/23 12:27:21;;;;;;;1.63;1.53;;;25.90;62.50;;;;;;5007622;28;20479;-83
2022/06/23 12:29:56;;;;;;;1.70;1.60;;;25.90;62.40;;;;;;5015967;28;20534;-84
2022/06/23 12:32:30;;;;;;;1.80;1.70;;;25.90;62.50;;;;;;5015828;28;20535;-84
2022/06/23 12:35:07;;;;;;;1.57;1.47;;;25.90;62.50;;;;;;5015834;28;20522;-84
2022/06/23 12:37:41;;;;;;;1.60;1.50;;;25.90;62.50;;;;;;5015694;28;20840;-84
2022/06/23 12:40:13;;;;;;;1.90;1.80;;;25.90;62.50;;;;;;5015605;28;20570;-84
2022/06/23 12:42:45;;;;;;;1.80;1.70;;;25.90;62.50;;;;;;5015627;28;20444;-85
2022/06/23 12:45:52;;;;;;;1.47;1.37;;;25.90;62.50;;;;;;5015532;28;20460;-84
2022/06/23 12:48:45;;;;;;;1.73;1.60;;;25.90;62.50;;;;;;5015463;28;20443;-84
2022/06/23 12:51:20;;;;;;;1.60;1.50;;;25.90;62.50;;;;;;5015500;28;20466;-84
2022/06/23 12:54:08;;;;;;;1.40;1.30;;;25.90;62.60;;;;;;5015000;28;20574;-84
2022/06/23 12:56:49;;;;;;;1.80;1.70;;;25.90;62.60;;;;;;5015347;28;20927;-84
2022/06/23 12:59:25;;;;;;;1.77;1.67;;;25.90;62.70;;;;;;5015472;28;20862;-84
2022/06/23 13:01:57;;;;;;;1.77;1.60;;;25.90;62.60;;;;;;5015409;28;20546;-90
2022/06/23 13:04:32;;;;;;;1.60;1.50;;;25.90;62.60;;;;;;5015176;28;20958;-84
2022/06/23 13:07:09;;;;;;;1.80;1.70;;;25.90;62.60;;;;;;5015330;28;20470;-84
2022/06/23 13:09:42;;;;;;;1.70;1.60;;;26.00;62.70;;;;;;5014995;28;20534;-84
2022/06/23 13:12:14;;;;;;;1.60;1.50;;;25.90;62.60;;;;;;5015104;28;21018;-85
2022/06/23 13:14:48;;;;;;;1.70;1.60;;;25.90;62.60;;;;;;5014644;28;20550;-85
2022/06/23 13:17:25;;;;;;;1.67;1.50;;;26.00;62.70;;;;;;5014948;28;21026;-84
2022/06/23 13:19:57;;;;;;;1.83;1.73;;;25.90;62.60;;;;;;5014901;28;20471;-84
2022/06/23 13:22:26;;;;;;;1.80;1.57;;;25.90;62.60;;;;;;5015007;28;20448;-84
2022/06/23 13:24:57;;;;;;;2.40;1.60;;;26.00;62.70;;;;;;5014806;28;20444;-84
2022/06/23 13:27:27;;;;;;;2.13;1.97;;;26.00;62.80;;;;;;5014802;28;20975;-90
2022/06/23 13:30:00;;;;;;;1.60;1.50;;;25.90;62.70;;;;;;5014785;28;20444;-84
2022/06/23 13:32:35;;;;;;;1.93;1.83;;;26.00;62.70;;;;;;5014801;28;20451;-85
2022/06/23 13:35:13;;;;;;;1.50;1.40;;;26.00;62.80;;;;;;5014632;28;20476;-84
2022/06/23 13:37:49;;;;;;;1.87;1.77;;;26.00;62.80;;;;;;5014732;28;20450;-84
2022/06/23 13:40:24;;;;;;;1.97;1.87;;;26.00;62.80;;;;;;5014476;28;20487;-84
2022/06/23 13:43:00;;;;;;;1.93;1.83;;;26.00;62.80;;;;;;5014574;28;20463;-84